Time,TemperatureF,DewpointF,PressureIn,WindDirection,WindDirectionDegrees,WindSpeedMPH,WindSpeedGustMPH,Humidity,HourlyPrecipIn,Conditions,Clouds,dailyrainin,SoftwareType,DateUTC
2013-07-04 00:01:00,68.0,61.0,30.10,ESE,121,1.0,-999.0,77,-99.99,,,-99.99,,2013-07-04 05:01:00,
2013-07-04 00:12:00,68.0,61.0,30.10,ESE,111,1.0,-999.0,77,-99.99,,,-99.99,,2013-07-04 05:12:00,
2013-07-04 00:22:00,68.0,61.0,30.10,East,90,1.0,-999.0,77,-99.99,,,-99.99,,2013-07-04 05:22:00,
2013-07-04 00:33:00,68.0,61.0,30.10,East,101,1.0,-999.0,77,-99.99,,,-99.99,,2013-07-04 05:33:00,
2013-07-04 00:43:00,68.0,61.0,30.09,ENE,76,1.0,-999.0,77,-99.99,,,-99.99,,2013-07-04 05:43:00,
2013-07-04 00:52:00,66.0,61.0,30.10,North,0,0.0,-999.0,82,-99.99,,,-99.99,,2013-07-04 05:52:00,
2013-07-04 01:01:00,66.0,61.0,30.09,North,0,0.0,-999.0,82,-99.99,,,-99.99,,2013-07-04 06:01:00,
2013-07-04 01:11:00,66.0,61.0,30.09,North,0,0.0,-999.0,82,-99.99,,,-99.99,,2013-07-04 06:11:00,
2013-07-04 01:22:00,66.0,59.0,30.09,North,0,0.0,-999.0,77,-99.99,,,-99.99,,2013-07-04 06:22:00,
2013-07-04 01:34:00,66.0,59.0,30.08,North,0,0.0,-999.0,77,-99.99,,,-99.99,,2013-07-04 06:34:00,
2013-07-04 01:43:00,66.0,59.0,30.09,North,0,0.0,-999.0,77,-99.99,,,-99.99,,2013-07-04 06:43:00,
2013-07-04 01:52:00,66.0,61.0,30.09,North,0,0.0,-999.0,82,-99.99,,,-99.99,,2013-07-04 06:52:00,
2013-07-04 02:02:00,66.0,61.0,30.09,North,0,0.0,-999.0,82,-99.99,,,-99.99,,2013-07-04 07:02:00,
2013-07-04 02:12:00,66.0,61.0,30.09,ESE,117,0.0,-999.0,82,-99.99,,,-99.99,,2013-07-04 07:12:00,
2013-07-04 02:22:00,66.0,61.0,30.09,North,0,0.0,-999.0,82,-99.99,,,-99.99,,2013-07-04 07:22:00,
2013-07-04 02:34:00,64.0,59.0,30.08,ESE,114,0.0,-999.0,82,-99.99,,,-99.99,,2013-07-04 07:34:00,
2013-07-04 02:43:00,64.0,59.0,30.08,SSE,151,1.0,-999.0,82,-99.99,,,-99.99,,2013-07-04 07:43:00,
2013-07-04 02:52:00,64.0,61.0,30.08,SSE,165,1.0,-999.0,88,-99.99,,,-99.99,,2013-07-04 07:52:00,
2013-07-04 03:02:00,64.0,61.0,30.09,ESE,114,1.0,-999.0,88,-99.99,,,-99.99,,2013-07-04 08:02:00,
2013-07-04 03:11:00,64.0,61.0,30.08,North,0,0.0,-999.0,88,-99.99,,,-99.99,,2013-07-04 08:11:00,
2013-07-04 03:22:00,64.0,59.0,30.09,South,169,1.0,-999.0,82,-99.99,,,-99.99,,2013-07-04 08:22:00,
2013-07-04 03:33:00,64.0,59.0,30.09,North,0,1.0,-999.0,82,-99.99,,,-99.99,,2013-07-04 08:33:00,
2013-07-04 03:42:00,64.0,59.0,30.08,SW,222,2.0,-999.0,82,-99.99,,,-99.99,,2013-07-04 08:42:00,
2013-07-04 03:52:00,64.0,61.0,30.08,SW,217,2.0,-999.0,88,-99.99,,,-99.99,,2013-07-04 08:52:00,
2013-07-04 04:02:00,64.0,61.0,30.08,SW,216,3.0,-999.0,88,-99.99,,,-99.99,,2013-07-04 09:02:00,
2013-07-04 04:11:00,64.0,61.0,30.08,SSW,207,3.0,-999.0,88,-99.99,,,-99.99,,2013-07-04 09:11:00,
2013-07-04 04:22:00,64.0,61.0,30.08,SW,231,3.0,-999.0,88,-99.99,,,-99.99,,2013-07-04 09:22:00,
2013-07-04 04:32:00,64.0,61.0,30.09,SW,226,3.0,-999.0,88,-99.99,,,-99.99,,2013-07-04 09:32:00,
2013-07-04 04:42:00,64.0,61.0,30.09,SW,225,3.0,-999.0,88,-99.99,,,-99.99,,2013-07-04 09:42:00,
2013-07-04 04:52:00,64.0,61.0,30.09,SW,227,2.0,-999.0,88,-99.99,,,-99.99,,2013-07-04 09:52:00,
2013-07-04 05:01:00,64.0,61.0,30.10,SW,218,3.0,-999.0,88,-99.99,,,-99.99,,2013-07-04 10:01:00,
2013-07-04 05:11:00,64.0,61.0,30.10,SW,219,3.0,-999.0,88,-99.99,,,-99.99,,2013-07-04 10:11:00,
2013-07-04 05:22:00,64.0,61.0,30.11,SSW,202,3.0,-999.0,88,-99.99,,,-99.99,,2013-07-04 10:22:00,
2013-07-04 05:34:00,64.0,61.0,30.11,SSW,212,3.0,-999.0,88,-99.99,,,-99.99,,2013-07-04 10:34:00,
2013-07-04 05:42:00,63.0,59.0,30.11,SSW,195,2.0,-999.0,88,-99.99,,,-99.99,,2013-07-04 10:42:00,
2013-07-04 05:53:00,63.0,59.0,30.11,SSW,204,2.0,-999.0,88,-99.99,,,-99.99,,2013-07-04 10:53:00,
2013-07-04 06:02:00,63.0,59.0,30.12,SSW,200,3.0,-999.0,88,-99.99,,,-99.99,,2013-07-04 11:02:00,
2013-07-04 06:11:00,63.0,59.0,30.12,SSW,208,3.0,-999.0,88,-99.99,,,-99.99,,2013-07-04 11:11:00,
2013-07-04 06:34:00,63.0,59.0,30.12,SW,226,2.0,-999.0,88,-99.99,,,-99.99,,2013-07-04 11:34:00,
2013-07-04 06:43:00,64.0,61.0,30.12,SSW,207,2.0,-999.0,88,-99.99,,,-99.99,,2013-07-04 11:43:00,
2013-07-04 06:53:00,64.0,61.0,30.12,SW,217,2.0,-999.0,88,-99.99,,,-99.99,,2013-07-04 11:53:00,
2013-07-04 07:02:00,64.0,61.0,30.12,SW,227,2.0,-999.0,88,-99.99,,,-99.99,,2013-07-04 12:02:00,
2013-07-04 08:43:00,72.0,63.0,30.14,SSW,200,3.0,-999.0,73,-99.99,,,-99.99,,2013-07-04 13:43:00,
2013-07-04 08:53:00,72.0,61.0,30.14,SW,225,6.0,-999.0,68,-99.99,,,-99.99,,2013-07-04 13:53:00,
2013-07-04 09:02:00,73.0,63.0,30.14,SW,221,5.0,-999.0,68,-99.99,,,-99.99,,2013-07-04 14:02:00,
2013-07-04 09:11:00,73.0,61.0,30.14,SW,236,5.0,-999.0,64,-99.99,,,-99.99,,2013-07-04 14:11:00,
2013-07-04 09:22:00,73.0,61.0,30.14,SSW,201,3.0,-999.0,64,-99.99,,,-99.99,,2013-07-04 14:22:00,
2013-07-04 09:33:00,75.0,61.0,30.14,SW,219,3.0,-999.0,60,-99.99,,,-99.99,,2013-07-04 14:33:00,
2013-07-04 09:43:00,75.0,61.0,30.13,SSW,196,3.0,-999.0,60,-99.99,,,-99.99,,2013-07-04 14:43:00,
2013-07-04 09:53:00,75.0,61.0,30.13,SSW,208,5.0,-999.0,60,-99.99,,,-99.99,,2013-07-04 14:53:00,
2013-07-04 10:02:00,75.0,61.0,30.13,SSW,209,3.0,-999.0,60,-99.99,,,-99.99,,2013-07-04 15:02:00,
2013-07-04 10:11:00,75.0,61.0,30.12,WSW,242,3.0,-999.0,60,-99.99,,,-99.99,,2013-07-04 15:11:00,
2013-07-04 10:23:00,77.0,61.0,30.13,WSW,242,3.0,-999.0,57,-99.99,,,-99.99,,2013-07-04 15:23:00,
2013-07-04 10:33:00,77.0,61.0,30.13,SW,214,3.0,-999.0,57,-99.99,,,-99.99,,2013-07-04 15:33:00,
2013-07-04 10:43:00,79.0,61.0,30.12,SW,229,2.0,-999.0,54,-99.99,,,-99.99,,2013-07-04 15:43:00,
2013-07-04 10:52:00,79.0,61.0,30.12,SSW,198,3.0,-999.0,54,-99.99,,,-99.99,,2013-07-04 15:52:00,
2013-07-04 11:02:00,79.0,57.0,30.12,SSW,196,3.0,-999.0,47,-99.99,,,-99.99,,2013-07-04 16:02:00,
2013-07-04 11:11:00,81.0,57.0,30.12,SSW,200,3.0,-999.0,44,-99.99,,,-99.99,,2013-07-04 16:11:00,
2013-07-04 11:22:00,81.0,57.0,30.12,SSW,199,6.0,-999.0,44,-99.99,,,-99.99,,2013-07-04 16:22:00,
2013-07-04 11:33:00,81.0,55.0,30.12,SSW,197,5.0,-999.0,41,-99.99,,,-99.99,,2013-07-04 16:33:00,
2013-07-04 11:43:00,81.0,57.0,30.11,SSE,163,3.0,-999.0,44,-99.99,,,-99.99,,2013-07-04 16:43:00,
2013-07-04 11:52:00,82.0,57.0,30.12,SSE,151,3.0,-999.0,42,-99.99,,,-99.99,,2013-07-04 16:52:00,
2013-07-04 12:01:00,82.0,57.0,30.12,South,169,3.0,-999.0,42,-99.99,,,-99.99,,2013-07-04 17:01:00,
2013-07-04 12:12:00,82.0,55.0,30.12,SW,223,7.0,-999.0,39,-99.99,,,-99.99,,2013-07-04 17:12:00,
2013-07-04 12:22:00,82.0,57.0,30.12,WSW,244,5.0,-999.0,42,-99.99,,,-99.99,,2013-07-04 17:22:00,
2013-07-04 12:34:00,82.0,59.0,30.12,SSE,158,2.0,-999.0,45,-99.99,,,-99.99,,2013-07-04 17:34:00,
2013-07-04 12:43:00,82.0,57.0,30.11,SW,214,3.0,-999.0,42,-99.99,,,-99.99,,2013-07-04 17:43:00,
2013-07-04 12:53:00,82.0,57.0,30.11,SSE,165,5.0,-999.0,42,-99.99,,,-99.99,,2013-07-04 17:53:00,
2013-07-04 13:01:00,82.0,57.0,30.11,South,174,3.0,-999.0,42,-99.99,,,-99.99,,2013-07-04 18:01:00,
2013-07-04 13:11:00,84.0,55.0,30.11,South,173,6.0,-999.0,37,-99.99,,,-99.99,,2013-07-04 18:11:00,
2013-07-04 13:22:00,84.0,55.0,30.11,South,188,2.0,-999.0,37,-99.99,,,-99.99,,2013-07-04 18:22:00,
2013-07-04 13:33:00,84.0,55.0,30.11,South,187,2.0,-999.0,37,-99.99,,,-99.99,,2013-07-04 18:33:00,
2013-07-04 13:43:00,84.0,57.0,30.10,SE,134,3.0,-999.0,39,-99.99,,,-99.99,,2013-07-04 18:43:00,
2013-07-04 13:52:00,84.0,55.0,30.10,SSE,167,3.0,-999.0,37,-99.99,,,-99.99,,2013-07-04 18:52:00,
2013-07-04 14:01:00,84.0,55.0,30.10,SSE,167,2.0,-999.0,37,-99.99,,,-99.99,,2013-07-04 19:01:00,
2013-07-04 14:12:00,86.0,55.0,30.10,SSE,167,2.0,-999.0,35,-99.99,,,-99.99,,2013-07-04 19:12:00,
2013-07-04 14:22:00,86.0,55.0,30.10,SSE,159,3.0,-999.0,35,-99.99,,,-99.99,,2013-07-04 19:22:00,
2013-07-04 14:33:00,84.0,57.0,30.09,South,190,5.0,-999.0,39,-99.99,,,-99.99,,2013-07-04 19:33:00,
2013-07-04 14:43:00,84.0,57.0,30.09,South,187,8.0,-999.0,39,-99.99,,,-99.99,,2013-07-04 19:43:00,
2013-07-04 14:53:00,86.0,57.0,30.09,SSE,167,5.0,-999.0,37,-99.99,,,-99.99,,2013-07-04 19:53:00,
2013-07-04 15:01:00,86.0,54.0,30.09,SSE,152,5.0,-999.0,33,-99.99,,,-99.99,,2013-07-04 20:01:00,
2013-07-04 15:11:00,86.0,57.0,30.09,SSW,203,5.0,-999.0,37,-99.99,,,-99.99,,2013-07-04 20:11:00,
2013-07-04 15:22:00,86.0,57.0,30.09,SE,134,5.0,-999.0,37,-99.99,,,-99.99,,2013-07-04 20:22:00,
2013-07-04 15:33:00,86.0,57.0,30.08,South,187,6.0,-999.0,37,-99.99,,,-99.99,,2013-07-04 20:33:00,
2013-07-04 15:42:00,84.0,57.0,30.08,South,172,6.0,-999.0,39,-99.99,,,-99.99,,2013-07-04 20:42:00,
2013-07-04 15:53:00,84.0,57.0,30.08,SW,223,5.0,-999.0,39,-99.99,,,-99.99,,2013-07-04 20:53:00,
2013-07-04 16:01:00,84.0,57.0,30.08,SSE,157,5.0,-999.0,39,-99.99,,,-99.99,,2013-07-04 21:01:00,
2013-07-04 16:11:00,86.0,57.0,30.08,South,178,3.0,-999.0,37,-99.99,,,-99.99,,2013-07-04 21:11:00,
2013-07-04 16:22:00,86.0,57.0,30.08,South,190,3.0,-999.0,37,-99.99,,,-99.99,,2013-07-04 21:22:00,
2013-07-04 16:32:00,86.0,55.0,30.07,South,173,5.0,-999.0,35,-99.99,,,-99.99,,2013-07-04 21:32:00,
2013-07-04 16:43:00,86.0,55.0,30.07,SSE,149,6.0,-999.0,35,-99.99,,,-99.99,,2013-07-04 21:43:00,
2013-07-04 16:52:00,84.0,55.0,30.07,SSE,156,6.0,-999.0,37,-99.99,,,-99.99,,2013-07-04 21:52:00,
2013-07-04 17:02:00,84.0,55.0,30.06,ESE,110,3.0,-999.0,37,-99.99,,,-99.99,,2013-07-04 22:02:00,
2013-07-04 17:12:00,86.0,55.0,30.06,SSW,199,3.0,-999.0,35,-99.99,,,-99.99,,2013-07-04 22:12:00,
2013-07-04 17:22:00,86.0,55.0,30.06,South,189,3.0,-999.0,35,-99.99,,,-99.99,,2013-07-04 22:22:00,
2013-07-04 17:33:00,86.0,55.0,30.06,South,186,5.0,-999.0,35,-99.99,,,-99.99,,2013-07-04 22:33:00,
2013-07-04 17:43:00,84.0,55.0,30.05,South,177,5.0,-999.0,37,-99.99,,,-99.99,,2013-07-04 22:43:00,
2013-07-04 17:52:00,86.0,55.0,30.05,SSE,156,2.0,-999.0,35,-99.99,,,-99.99,,2013-07-04 22:52:00,
2013-07-04 18:01:00,86.0,55.0,30.05,SSE,155,2.0,-999.0,35,-99.99,,,-99.99,,2013-07-04 23:01:00,
2013-07-04 18:12:00,86.0,55.0,30.05,SW,221,6.0,-999.0,35,-99.99,,,-99.99,,2013-07-04 23:12:00,
2013-07-04 18:23:00,86.0,55.0,30.05,South,173,5.0,-999.0,35,-99.99,,,-99.99,,2013-07-04 23:23:00,
2013-07-04 18:33:00,86.0,55.0,30.05,SSE,155,2.0,-999.0,35,-99.99,,,-99.99,,2013-07-04 23:33:00,
2013-07-04 18:43:00,86.0,55.0,30.05,South,178,3.0,-999.0,35,-99.99,,,-99.99,,2013-07-04 23:43:00,
2013-07-04 18:52:00,86.0,55.0,30.05,SSE,158,3.0,-999.0,35,-99.99,,,-99.99,,2013-07-04 23:52:00,
2013-07-04 19:01:00,84.0,55.0,30.04,SSE,158,3.0,-999.0,37,-99.99,,,-99.99,,2013-07-05 00:01:00,
2013-07-04 19:11:00,84.0,55.0,30.05,South,176,3.0,-999.0,37,-99.99,,,-99.99,,2013-07-05 00:11:00,
2013-07-04 19:22:00,84.0,57.0,30.05,South,173,3.0,-999.0,39,-99.99,,,-99.99,,2013-07-05 00:22:00,
2013-07-04 19:32:00,84.0,57.0,30.05,SSE,167,3.0,-999.0,39,-99.99,,,-99.99,,2013-07-05 00:32:00,
2013-07-04 19:43:00,84.0,57.0,30.05,SSE,160,2.0,-999.0,39,-99.99,,,-99.99,,2013-07-05 00:43:00,
2013-07-04 19:52:00,84.0,57.0,30.05,SSE,161,3.0,-999.0,39,-99.99,,,-99.99,,2013-07-05 00:52:00,
2013-07-04 20:01:00,82.0,57.0,30.05,SSE,153,2.0,-999.0,42,-99.99,,,-99.99,,2013-07-05 01:01:00,
2013-07-04 20:11:00,82.0,59.0,30.05,South,170,3.0,-999.0,45,-99.99,,,-99.99,,2013-07-05 01:11:00,
2013-07-04 20:22:00,82.0,59.0,30.05,SSE,158,2.0,-999.0,45,-99.99,,,-99.99,,2013-07-05 01:22:00,
2013-07-04 20:32:00,82.0,61.0,30.05,SSE,157,2.0,-999.0,48,-99.99,,,-99.99,,2013-07-05 01:32:00,
2013-07-04 20:42:00,81.0,59.0,30.05,SSE,156,2.0,-999.0,47,-99.99,,,-99.99,,2013-07-05 01:42:00,
2013-07-04 20:52:00,81.0,59.0,30.05,South,170,2.0,-999.0,47,-99.99,,,-99.99,,2013-07-05 01:52:00,
2013-07-04 21:02:00,81.0,61.0,30.05,SSE,158,2.0,-999.0,50,-99.99,,,-99.99,,2013-07-05 02:02:00,
2013-07-04 21:11:00,81.0,61.0,30.05,SE,146,1.0,-999.0,50,-99.99,,,-99.99,,2013-07-05 02:11:00,
2013-07-04 21:21:00,79.0,59.0,30.05,North,0,0.0,-999.0,50,-99.99,,,-99.99,,2013-07-05 02:21:00,
2013-07-04 21:32:00,79.0,59.0,30.05,North,0,0.0,-999.0,50,-99.99,,,-99.99,,2013-07-05 02:32:00,
2013-07-04 21:42:00,77.0,59.0,30.06,North,0,0.0,-999.0,53,-99.99,,,-99.99,,2013-07-05 02:42:00,
2013-07-04 21:52:00,77.0,59.0,30.06,North,0,0.0,-999.0,53,-99.99,,,-99.99,,2013-07-05 02:52:00,
2013-07-04 22:02:00,75.0,59.0,30.06,North,0,0.0,-999.0,57,-99.99,,,-99.99,,2013-07-05 03:02:00,
2013-07-04 22:11:00,75.0,59.0,30.06,North,0,0.0,-999.0,57,-99.99,,,-99.99,,2013-07-05 03:11:00,
2013-07-04 22:22:00,75.0,61.0,30.07,SE,137,1.0,-999.0,60,-99.99,,,-99.99,,2013-07-05 03:22:00,
2013-07-04 22:32:00,75.0,61.0,30.07,SE,136,1.0,-999.0,60,-99.99,,,-99.99,,2013-07-05 03:32:00,
2013-07-04 22:42:00,75.0,61.0,30.07,South,174,2.0,-999.0,60,-99.99,,,-99.99,,2013-07-05 03:42:00,
2013-07-04 22:52:00,75.0,61.0,30.07,South,175,2.0,-999.0,60,-99.99,,,-99.99,,2013-07-05 03:52:00,
2013-07-04 23:01:00,75.0,61.0,30.07,South,172,2.0,-999.0,60,-99.99,,,-99.99,,2013-07-05 04:01:00,
2013-07-04 23:11:00,75.0,61.0,30.07,SSE,153,2.0,-999.0,60,-99.99,,,-99.99,,2013-07-05 04:11:00,
2013-07-04 23:22:00,73.0,61.0,30.07,SSE,153,2.0,-999.0,64,-99.99,,,-99.99,,2013-07-05 04:22:00,
2013-07-04 23:33:00,73.0,61.0,30.07,South,176,2.0,-999.0,64,-99.99,,,-99.99,,2013-07-05 04:33:00,
2013-07-04 23:43:00,73.0,61.0,30.07,South,182,3.0,-999.0,64,-99.99,,,-99.99,,2013-07-05 04:43:00,
2013-07-04 23:53:00,73.0,63.0,30.08,South,184,2.0,-999.0,68,-99.99,,,-99.99,,2013-07-05 04:53:00,